Time;durP1;ratioP1;P1;durP2;ratioP2;P2;SDS_P1;SDS_P2;PMS_P1;PMS_P2;Temp;Humidity;BMP_temperature;BMP_pressure;BME280_temperature;BME280_humidity;BME280_pressure;Samples;Min_cycle;Max_cycle;Signal;HPM_P1;HPM_P2
2021/04/03 00:00:38;;;;;;;17.85;12.65;;;7.20;67.10;;;6.13;52.49;94787.28;4977104;28;20616;-81
2021/04/03 00:03:08;;;;;;;18.02;12.52;;;7.10;67.30;;;6.07;52.21;94778.34;5009624;28;20229;-80
2021/04/03 00:05:35;;;;;;;19.35;12.90;;;7.00;67.10;;;6.04;52.25;94783.06;4977040;28;20233;-81
2021/04/03 00:08:04;;;;;;;16.88;12.02;;;7.00;67.10;;;5.97;52.39;94782.09;4977113;28;20252;-81
2021/04/03 00:10:44;;;;;;;17.08;12.50;;;6.90;67.00;;;5.95;52.16;94784.06;5009261;28;20229;-81
2021/04/03 00:13:13;;;;;;;16.55;11.70;;;6.90;67.10;;;5.95;52.39;94778.84;4993020;28;20205;-81
2021/04/03 00:15:40;;;;;;;16.77;11.98;;;6.80;67.20;;;5.92;52.04;94775.59;4976101;28;20244;-81
2021/04/03 00:18:06;;;;;;;16.42;11.98;;;6.80;67.20;;;5.91;52.32;94773.16;4976610;28;20300;-82
2021/04/03 00:20:35;;;;;;;17.77;12.60;;;6.70;67.20;;;5.89;53.25;94775.13;4993174;28;20200;-80
2021/04/03 00:23:03;;;;;;;17.48;13.32;;;6.70;67.70;;;5.88;53.37;94774.31;4976522;28;20229;-81
2021/04/03 00:25:32;;;;;;;18.35;13.05;;;6.70;67.70;;;5.89;53.46;94775.91;4977009;28;20214;-81
2021/04/03 00:28:00;;;;;;;16.35;11.73;;;6.70;68.00;;;5.92;52.87;94782.59;4992643;28;20296;-81
2021/04/03 00:30:27;;;;;;;15.63;11.13;;;6.70;67.80;;;5.95;52.82;94771.84;4976893;28;20206;-80
2021/04/03 00:32:58;;;;;;;17.13;12.65;;;6.70;67.80;;;5.90;52.72;94769.75;4992843;28;20214;-80
2021/04/03 00:35:29;;;;;;;15.48;11.93;;;6.70;67.80;;;5.96;52.94;94780.47;4975667;28;20212;-81
2021/04/03 00:37:57;;;;;;;15.55;11.68;;;6.70;67.80;;;5.99;52.02;94782.78;4992027;28;20230;-80
2021/04/03 00:40:27;;;;;;;16.30;11.63;;;6.70;67.70;;;6.00;52.22;94784.41;4992573;28;20608;-81
2021/04/03 00:42:55;;;;;;;14.30;10.52;;;6.70;67.70;;;6.02;51.46;94775.44;4992531;28;20284;-80
2021/04/03 00:45:23;;;;;;;13.27;10.40;;;6.70;67.40;;;6.03;51.84;94777.06;4976704;28;20605;-81
2021/04/03 00:47:51;;;;;;;16.88;12.52;;;6.70;67.30;;;6.00;52.17;94772.19;5008812;28;20214;-81
2021/04/03 00:50:32;;;;;;;14.57;11.73;;;6.70;67.50;;;6.01;51.76;94768.59;4992394;28;20289;-80
2021/04/03 00:52:59;;;;;;;16.70;12.48;;;6.70;67.60;;;6.00;52.01;94758.38;4992422;28;20218;-81
2021/04/03 00:55:27;;;;;;;18.67;13.20;;;6.70;67.50;;;6.01;52.07;94760.00;4991922;28;20202;-81
2021/04/03 00:57:55;;;;;;;15.70;11.63;;;6.70;68.40;;;6.03;51.84;94764.06;4991755;28;20229;-80
2021/04/03 01:00:22;;;;;;;13.55;10.70;;;6.70;67.40;;;6.02;51.85;94762.41;4992267;28;20618;-80
2021/04/03 01:02:50;;;;;;;14.82;11.40;;;6.70;67.20;;;5.98;51.81;94749.88;4992345;28;20747;-81
2021/04/03 01:05:24;;;;;;;15.77;12.02;;;6.70;67.20;;;5.98;52.06;94763.72;4976451;28;20205;-81
2021/04/03 01:07:55;;;;;;;16.02;12.23;;;6.70;67.30;;;5.98;52.04;94774.13;4992142;28;20221;-80
2021/04/03 01:10:32;;;;;;;16.13;12.05;;;6.70;67.40;;;5.95;51.76;94758.84;4992088;28;20684;-80
2021/04/03 01:13:34;;;;;;;15.15;11.25;;;6.70;67.40;;;5.92;51.51;94764.38;4981465;28;20240;-81
2021/04/03 01:16:26;;;;;;;17.50;12.95;;;6.70;67.30;;;5.85;51.91;94766.03;4976246;28;20668;-81
2021/04/03 01:19:29;;;;;;;16.23;12.07;;;6.70;67.60;;;5.82;52.25;94761.13;4991563;28;20740;-81
2021/04/03 01:22:38;;;;;;;15.52;12.10;;;6.60;67.30;;;5.74;51.95;94748.97;5001778;28;20228;-80
2021/04/03 01:25:59;;;;;;;15.90;12.50;;;6.60;67.30;;;5.66;52.29;94749.78;5014982;28;20678;-81
2021/04/03 01:29:05;;;;;;;16.42;12.00;;;6.60;67.30;;;5.61;52.28;94757.25;5015039;28;20735;-81
2021/04/03 01:31:33;;;;;;;15.73;12.27;;;6.50;67.40;;;5.55;52.60;94758.72;5014624;28;20723;-81
2021/04/03 01:34:01;;;;;;;18.63;12.30;;;6.50;67.60;;;5.55;52.26;94753.53;5031138;28;20275;-81
2021/04/03 01:36:31;;;;;;;18.48;12.80;;;6.40;67.60;;;5.47;53.09;94737.94;5031189;28;20248;-81
2021/04/03 01:39:07;;;;;;;18.98;12.65;;;6.40;68.00;;;5.53;53.33;94754.66;5030703;28;20181;-81
2021/04/03 01:41:35;;;;;;;17.35;12.88;;;6.40;68.00;;;5.53;53.18;94759.88;5014649;28;20224;-80
2021/04/03 01:44:04;;;;;;;15.07;11.43;;;6.30;68.00;;;5.55;52.64;94757.94;5031335;28;20525;-81
2021/04/03 01:46:38;;;;;;;18.00;12.23;;;6.30;67.90;;;5.55;53.42;94752.72;5016449;28;20409;-81
2021/04/03 01:49:10;;;;;;;18.23;12.90;;;6.30;68.10;;;5.57;52.97;94756.78;5030997;28;20243;-81
2021/04/03 01:51:46;;;;;;;16.33;12.45;;;6.30;68.10;;;5.56;53.50;94746.56;5030975;28;20738;-80
2021/04/03 01:54:17;;;;;;;16.02;12.30;;;6.40;68.40;;;5.63;53.22;94757.94;4998030;28;20197;-81
2021/04/03 01:56:49;;;;;;;15.05;12.32;;;6.40;68.40;;;5.65;53.49;94752.53;5006179;28;20226;-81
2021/04/03 01:59:21;;;;;;;12.77;10.43;;;6.40;68.50;;;5.68;53.38;94747.81;4996777;28;20673;-81
2021/04/03 02:01:55;;;;;;;18.17;11.98;;;6.40;68.40;;;5.73;53.26;94748.13;5011197;28;20304;-80
2021/04/03 02:04:24;;;;;;;15.35;10.85;;;6.40;68.50;;;5.78;52.96;94750.25;4994407;28;20573;-79
2021/04/03 02:06:52;;;;;;;15.65;11.77;;;6.40;68.30;;;5.79;53.33;94751.06;5029655;28;20212;-81
2021/04/03 02:09:40;;;;;;;15.00;11.18;;;6.40;68.40;;;5.81;53.18;94741.28;5033411;28;20209;-80
2021/04/03 02:12:19;;;;;;;16.50;11.55;;;6.50;68.50;;;5.83;53.50;94742.75;5015967;28;20810;-81
2021/04/03 02:15:07;;;;;;;18.08;11.98;;;6.50;68.50;;;5.84;53.32;94743.56;5032825;28;20552;-80
2021/04/03 02:17:36;;;;;;;17.52;12.18;;;6.50;68.60;;;5.87;53.39;94753.63;5030488;28;20235;-80
2021/04/03 02:20:09;;;;;;;17.38;11.48;;;6.50;68.60;;;5.88;52.96;94745.69;5030774;28;20204;-81
2021/04/03 02:22:37;;;;;;;17.60;11.18;;;6.60;68.70;;;5.90;53.37;94751.50;5014363;28;20225;-81
2021/04/03 02:25:14;;;;;;;15.13;11.63;;;6.50;68.50;;;5.89;53.24;94744.69;5030788;28;20212;-81
2021/04/03 02:27:43;;;;;;;14.48;11.40;;;6.60;68.70;;;5.96;53.31;94751.81;5046741;28;20224;-80
2021/04/03 02:30:18;;;;;;;16.65;10.32;;;6.60;68.50;;;5.99;52.59;94751.53;5030838;28;20258;-81
2021/04/03 02:32:56;;;;;;;16.92;10.05;;;6.60;68.50;;;6.02;52.33;94746.81;4998803;28;20259;-81
2021/04/03 02:35:29;;;;;;;14.40;10.40;;;6.60;68.40;;;6.05;52.57;94737.84;5031023;28;20173;-81
2021/04/03 02:38:04;;;;;;;12.82;10.43;;;6.70;68.30;;;6.05;52.35;94737.84;5030739;28;20237;-81
2021/04/03 02:40:43;;;;;;;13.02;10.25;;;6.70;68.30;;;6.08;52.73;94747.94;5030419;28;20208;-81
2021/04/03 02:43:29;;;;;;;17.52;11.63;;;6.70;68.30;;;6.06;52.54;94739.47;5014646;28;20308;-81
2021/04/03 02:46:05;;;;;;;14.52;10.77;;;6.70;69.30;;;6.07;52.88;94739.28;5013844;28;20231;-80
2021/04/03 02:48:37;;;;;;;17.85;11.98;;;6.80;68.40;;;6.05;52.60;94736.06;5030209;28;20215;-81
2021/04/03 02:51:07;;;;;;;13.63;10.68;;;6.70;68.20;;;6.08;52.73;94725.31;5015272;28;20203;-81
2021/04/03 02:53:35;;;;;;;13.40;9.88;;;6.80;68.30;;;6.12;52.12;94730.97;4992144;28;20216;-80
2021/04/03 02:56:11;;;;;;;14.90;10.30;;;6.70;68.00;;;6.09;53.15;94729.53;5014610;28;20271;-81
2021/04/03 02:58:42;;;;;;;14.27;10.48;;;6.80;68.30;;;6.09;53.04;94736.50;4996057;28;20213;-80
2021/04/03 03:01:14;;;;;;;18.83;11.90;;;6.80;68.30;;;6.11;52.74;94725.94;4993937;28;20214;-81
2021/04/03 03:03:51;;;;;;;17.02;11.38;;;6.80;68.30;;;6.08;52.55;94722.69;4997393;28;20565;-80
2021/04/03 03:06:19;;;;;;;14.02;10.65;;;6.80;68.30;;;6.09;52.35;94729.53;5013837;28;20309;-81
2021/04/03 03:08:49;;;;;;;15.57;10.63;;;6.80;68.20;;;6.08;52.50;94727.91;4995976;28;20722;-80
2021/04/03 03:11:19;;;;;;;15.85;10.88;;;6.80;68.20;;;6.11;52.67;94733.75;4980723;28;20401;-80
2021/04/03 03:13:46;;;;;;;14.68;11.25;;;6.80;68.20;;;6.10;52.62;94725.13;4986935;28;20265;-81
2021/04/03 03:16:15;;;;;;;14.75;10.98;;;6.80;68.30;;;6.09;52.96;94726.94;4994883;28;20229;-81
2021/04/03 03:18:44;;;;;;;15.70;11.27;;;6.80;68.30;;;6.09;52.64;94732.13;5011779;28;20304;-79
2021/04/03 03:21:12;;;;;;;15.45;10.35;;;6.80;68.20;;;6.07;52.67;94726.28;4997473;28;20294;-81
2021/04/03 03:23:41;;;;;;;16.42;10.05;;;6.80;68.20;;;6.04;52.70;94733.59;4995741;28;20652;-80
2021/04/03 03:26:08;;;;;;;15.93;10.20;;;6.80;68.30;;;6.03;53.07;94734.59;4995057;28;20190;-79
2021/04/03 03:28:39;;;;;;;13.23;10.25;;;6.70;68.20;;;6.01;53.25;94733.97;4995463;28;20722;-80
2021/04/03 03:31:07;;;;;;;17.48;10.15;;;6.70;68.40;;;5.96;52.57;94737.03;5012027;28;20582;-80
2021/04/03 03:33:35;;;;;;;14.27;10.18;;;6.80;68.20;;;5.92;52.56;94733.16;4995918;28;20197;-80
2021/04/03 03:36:07;;;;;;;14.27;9.15;;;6.70;68.10;;;5.86;52.37;94732.00;5012708;28;20201;-80
2021/04/03 03:38:37;;;;;;;14.88;9.77;;;6.70;68.00;;;5.78;53.04;94739.84;5013761;28;20264;-80
2021/04/03 03:41:06;;;;;;;14.80;9.90;;;6.60;68.10;;;5.69;52.82;94740.81;4997360;28;20200;-80
2021/04/03 03:43:37;;;;;;;15.50;9.65;;;6.60;68.00;;;5.63;52.87;94750.13;4997738;28;20296;-80
2021/04/03 03:46:06;;;;;;;14.88;9.45;;;6.60;67.90;;;5.53;52.95;94752.06;5013151;28;20186;-79
2021/04/03 03:48:35;;;;;;;24.13;9.68;;;6.50;68.10;;;5.50;53.26;94753.22;5013210;28;20193;-80
2021/04/03 03:51:02;;;;;;;13.98;9.10;;;6.50;68.10;;;5.48;53.14;94755.19;5013081;28;20203;-79
2021/04/03 03:53:37;;;;;;;13.88;9.70;;;6.40;68.20;;;5.45;53.13;94750.28;4998442;28;20209;-80
2021/04/03 03:56:07;;;;;;;14.27;9.35;;;6.30;68.20;;;5.43;52.91;94755.66;4996841;28;20212;-79
2021/04/03 03:58:34;;;;;;;13.65;9.27;;;6.30;68.30;;;5.46;53.19;94759.72;5012923;28;20236;-81
2021/04/03 04:01:03;;;;;;;16.10;10.55;;;6.30;68.40;;;5.49;53.37;94758.59;4996868;28;20201;-80
2021/04/03 04:03:33;;;;;;;12.95;9.52;;;6.30;68.50;;;5.51;53.24;94761.84;4996703;28;20224;-80
2021/04/03 04:06:06;;;;;;;13.55;9.13;;;6.20;68.40;;;5.54;53.10;94762.34;4996868;28;20205;-80
2021/04/03 04:08:34;;;;;;;13.70;9.52;;;6.20;68.30;;;5.56;52.59;94764.75;4996708;28;20668;-80
2021/04/03 04:11:09;;;;;;;14.60;9.45;;;6.30;68.40;;;5.56;53.08;94765.56;5012779;28;20189;-80
2021/04/03 04:13:37;;;;;;;13.57;8.68;;;6.30;68.40;;;5.62;52.89;94766.69;5012402;28;20209;-80
2021/04/03 04:16:05;;;;;;;14.20;9.43;;;6.30;68.40;;;5.58;52.86;94760.22;5012784;28;20190;-80
2021/04/03 04:18:34;;;;;;;14.27;9.65;;;6.30;68.30;;;5.64;52.62;94776.94;4996604;28;20324;-79
2021/04/03 04:21:04;;;;;;;11.88;9.10;;;6.30;68.30;;;5.66;52.49;94759.38;5012680;28;20402;-79
2021/04/03 04:23:34;;;;;;;13.18;8.88;;;6.30;68.30;;;5.67;52.51;94763.63;5011082;28;20201;-79
2021/04/03 04:26:05;;;;;;;15.77;9.38;;;6.40;68.20;;;5.67;52.78;94759.22;4995516;28;20213;-79
2021/04/03 04:28:34;;;;;;;12.55;9.25;;;6.30;68.20;;;5.64;52.57;94769.97;5010726;28;20205;-79
2021/04/03 04:31:07;;;;;;;13.43;9.25;;;6.40;68.30;;;5.63;52.52;94764.91;4995757;28;20201;-79
2021/04/03 04:33:46;;;;;;;14.90;9.75;;;6.40;68.40;;;5.63;52.65;94770.94;5014535;28;20229;-79
2021/04/03 04:36:14;;;;;;;11.20;8.40;;;6.40;68.30;;;5.65;52.42;94768.16;5011885;28;20221;-80
2021/04/03 04:38:41;;;;;;;13.23;8.48;;;6.30;68.20;;;5.65;52.59;94770.75;4995641;28;20240;-80
2021/04/03 04:41:08;;;;;;;12.15;8.68;;;6.40;68.20;;;5.65;52.78;94781.16;4996142;28;20202;-79
2021/04/03 04:43:36;;;;;;;12.63;8.80;;;6.50;68.40;;;5.64;52.69;94772.56;5011467;28;20702;-79
2021/04/03 04:46:06;;;;;;;11.02;7.60;;;6.40;68.20;;;5.68;52.72;94775.66;5010624;28;20253;-78
2021/04/03 04:48:42;;;;;;;14.25;8.32;;;6.40;68.20;;;5.68;52.48;94786.84;5009824;28;20229;-80
2021/04/03 04:51:18;;;;;;;10.57;7.93;;;6.40;68.20;;;5.69;52.50;94787.66;4995173;28;20276;-79
2021/04/03 04:53:48;;;;;;;11.43;8.57;;;6.40;68.20;;;5.67;52.78;94779.22;4994085;28;20259;-78
2021/04/03 04:56:18;;;;;;;13.73;8.52;;;6.40;68.20;;;5.63;52.55;94780.50;4977565;28;20248;-79
2021/04/03 04:58:46;;;;;;;11.98;7.72;;;6.40;68.20;;;5.67;52.29;94795.63;5010473;28;20316;-79
2021/04/03 05:01:17;;;;;;;13.57;8.52;;;6.40;68.20;;;5.66;52.49;94794.00;5011339;28;20324;-80
2021/04/03 05:03:46;;;;;;;11.45;7.28;;;6.40;68.20;;;5.65;52.39;94787.19;4996436;28;20210;-79
2021/04/03 05:06:13;;;;;;;15.10;9.13;;;6.40;68.20;;;5.67;52.35;94793.03;5011356;28;20226;-79
2021/04/03 05:08:40;;;;;;;13.65;8.32;;;6.40;68.20;;;5.68;52.48;94797.25;4996060;28;20209;-79
2021/04/03 05:11:07;;;;;;;12.63;8.57;;;6.40;68.30;;;5.68;52.67;94810.28;5011658;28;20695;-79
2021/04/03 05:13:34;;;;;;;15.25;8.57;;;6.40;68.30;;;5.67;52.66;94800.84;5011147;28;20201;-79
2021/04/03 05:16:01;;;;;;;13.50;9.10;;;6.40;68.40;;;5.65;52.89;94801.97;4979872;28;20200;-79
2021/04/03 05:18:28;;;;;;;12.07;7.53;;;6.40;68.40;;;5.65;52.86;94813.22;5012071;28;20225;-79
2021/04/03 05:20:55;;;;;;;13.27;7.85;;;6.40;68.50;;;5.66;52.91;94808.81;4995456;28;20586;-79
2021/04/03 05:23:22;;;;;;;12.55;8.45;;;6.30;68.40;;;5.72;52.57;94816.75;4979504;28;20201;-79
2021/04/03 05:25:49;;;;;;;13.73;7.93;;;6.40;68.40;;;5.75;52.48;94818.25;5012983;28;20197;-79
2021/04/03 05:28:16;;;;;;;11.50;7.78;;;6.40;68.40;;;5.75;52.64;94821.66;5010526;28;20654;-79
2021/04/03 05:30:43;;;;;;;11.57;7.80;;;6.40;68.50;;;5.75;52.71;94820.84;5010891;28;20233;-80
2021/04/03 05:33:11;;;;;;;14.00;7.78;;;6.40;68.50;;;5.75;52.89;94826.88;4995887;28;20224;-79
2021/04/03 05:35:37;;;;;;;12.40;6.97;;;6.50;68.60;;;5.74;53.13;94830.44;4997614;28;20206;-79
2021/04/03 05:38:04;;;;;;;10.93;8.20;;;6.50;68.60;;;5.74;53.65;94830.44;4997595;28;20309;-79
2021/04/03 05:40:32;;;;;;;9.68;7.05;;;6.50;68.80;;;5.72;53.29;94842.00;4989043;28;20200;-79
2021/04/03 05:43:03;;;;;;;9.07;6.50;;;6.50;68.70;;;5.71;53.12;94846.41;5012853;28;20710;-79
2021/04/03 05:45:36;;;;;;;10.60;6.78;;;6.40;68.60;;;5.68;53.55;94845.91;4989576;28;20316;-79
2021/04/03 05:48:05;;;;;;;9.90;6.65;;;6.40;68.80;;;5.68;53.36;94844.09;5011318;28;20227;-81
2021/04/03 05:50:35;;;;;;;10.80;7.75;;;6.40;68.80;;;5.64;53.76;94855.00;4989874;28;20224;-80
2021/04/03 05:53:04;;;;;;;14.93;7.10;;;6.40;69.00;;;5.60;54.60;94842.31;5010741;28;20692;-80
2021/04/03 05:55:30;;;;;;;9.93;6.80;;;6.40;69.40;;;5.57;54.79;94840.03;4995295;28;20651;-79
2021/04/03 05:57:57;;;;;;;10.05;7.05;;;6.40;69.40;;;5.55;54.86;94846.38;5012475;28;20735;-79
2021/04/03 06:00:24;;;;;;;10.20;6.85;;;6.30;69.50;;;5.54;55.25;94840.38;4984155;28;20189;-80
2021/04/03 06:02:51;;;;;;;11.32;6.70;;;6.30;69.60;;;5.54;55.26;94845.56;5013534;28;20615;-79
2021/04/03 06:05:19;;;;;;;10.63;7.13;;;6.30;69.60;;;5.55;55.20;94852.38;5013043;28;20707;-79
2021/04/03 06:07:46;;;;;;;10.95;6.93;;;6.30;69.90;;;5.56;54.87;94868.81;4996874;28;20228;-80
2021/04/03 06:10:13;;;;;;;10.57;6.53;;;6.30;69.80;;;5.53;54.54;94854.34;4998439;28;20293;-79
2021/04/03 06:12:45;;;;;;;10.32;6.47;;;6.30;69.80;;;5.54;55.17;94865.56;5012577;28;20217;-79
2021/04/03 06:15:28;;;;;;;10.43;6.70;;;6.30;70.00;;;5.54;54.93;94866.41;5012700;28;20190;-79
2021/04/03 06:18:00;;;;;;;12.32;7.00;;;6.30;70.00;;;5.56;55.42;94871.44;5009115;28;20451;-78
2021/04/03 06:20:41;;;;;;;9.75;6.50;;;6.20;70.30;;;5.45;55.82;94882.97;4997199;28;20193;-79
2021/04/03 06:23:10;;;;;;;8.68;5.88;;;6.20;70.40;;;5.32;55.40;94867.00;4979980;28;20241;-79
2021/04/03 06:26:07;;;;;;;8.68;5.82;;;6.20;70.10;;;5.21;55.91;94881.94;5014268;28;20225;-79
2021/04/03 06:28:33;;;;;;;9.35;6.53;;;6.10;70.20;;;5.13;57.22;94881.94;4979268;28;20201;-79
2021/04/03 06:31:16;;;;;;;8.52;6.40;;;6.00;70.60;;;5.07;56.13;94880.75;4999690;28;20228;-79
2021/04/03 06:33:43;;;;;;;8.88;6.30;;;6.00;70.70;;;5.05;56.62;94874.09;5008316;28;20205;-79
2021/04/03 06:36:17;;;;;;;8.43;6.15;;;5.90;70.70;;;5.04;56.23;94878.50;4999864;28;20283;-79
2021/04/03 06:38:46;;;;;;;9.63;6.53;;;5.90;70.90;;;5.05;57.66;94881.91;5015898;28;20228;-79
2021/04/03 06:41:23;;;;;;;9.70;6.68;;;6.00;71.30;;;5.07;56.76;94887.75;4997482;28;20222;-78
2021/04/03 06:44:10;;;;;;;10.10;5.78;;;5.80;71.40;;;5.05;56.81;94879.28;5000804;28;20209;-79
2021/04/03 06:46:46;;;;;;;9.50;6.45;;;5.80;71.30;;;5.04;57.39;94890.66;5010301;28;20332;-79
2021/04/03 06:49:15;;;;;;;9.43;6.32;;;5.80;71.30;;;5.02;57.13;94882.22;5000199;28;20223;-79
2021/04/03 06:51:43;;;;;;;11.55;6.13;;;5.80;71.20;;;4.99;57.08;94888.53;4996496;28;20220;-77
2021/04/03 06:54:13;;;;;;;9.52;5.95;;;5.80;71.30;;;5.00;56.93;94887.56;4998059;28;20261;-79
2021/04/03 06:56:41;;;;;;;9.38;6.22;;;5.80;71.40;;;4.99;57.59;94895.53;5029978;28;20223;-79
2021/04/03 06:59:12;;;;;;;11.50;7.07;;;5.80;71.60;;;4.95;58.58;94889.81;5017527;28;20686;-80
2021/04/03 07:01:52;;;;;;;10.13;6.78;;;5.80;72.20;;;4.92;58.09;94892.72;5005976;28;20232;-79
2021/04/03 07:04:42;;;;;;;8.18;6.47;;;5.80;71.90;;;4.87;58.98;94898.41;5008904;28;20190;-78
2021/04/03 07:07:14;;;;;;;10.70;6.97;;;5.70;72.30;;;4.87;59.05;94898.41;5004195;28;20569;-79
2021/04/03 07:09:42;;;;;;;9.30;6.25;;;5.70;72.60;;;4.78;59.96;94892.34;5014873;28;20209;-79
2021/04/03 07:12:11;;;;;;;9.63;6.88;;;5.70;72.80;;;4.78;60.14;94902.75;5031458;28;20282;-79
2021/04/03 07:14:39;;;;;;;9.27;6.32;;;5.70;72.90;;;4.75;59.74;94904.88;5032450;28;20710;-79
2021/04/03 07:17:09;;;;;;;9.27;6.15;;;5.60;72.80;;;4.68;60.26;94904.66;5017414;28;20256;-78
2021/04/03 07:19:37;;;;;;;8.55;5.90;;;5.60;72.80;;;4.63;60.21;94917.31;5015660;28;20839;-79
2021/04/03 07:22:04;;;;;;;8.65;6.05;;;5.50;72.70;;;4.62;60.03;94907.88;5017109;28;20298;-78
2021/04/03 07:24:35;;;;;;;8.88;6.32;;;5.50;72.70;;;4.64;59.89;94919.75;4999998;28;20196;-77
2021/04/03 07:27:03;;;;;;;8.90;5.70;;;5.50;73.00;;;4.65;60.73;94923.16;5039888;28;20633;-77
2021/04/03 07:29:50;;;;;;;8.63;6.40;;;5.50;73.20;;;4.65;61.24;94912.75;5015131;28;20264;-78
2021/04/03 07:32:44;;;;;;;9.35;6.38;;;5.50;74.00;;;4.65;61.39;94915.34;4993985;28;20217;-77
2021/04/03 07:35:21;;;;;;;8.07;6.22;;;5.50;74.80;;;4.71;61.47;94916.53;5009727;28;20189;-78
2021/04/03 07:37:53;;;;;;;9.30;6.47;;;5.50;74.50;;;4.75;61.47;94923.06;4999244;28;20242;-78
2021/04/03 07:40:23;;;;;;;7.50;6.35;;;5.50;74.30;;;4.78;61.57;94923.53;5004228;28;20205;-78
2021/04/03 07:42:50;;;;;;;8.95;6.15;;;5.50;74.60;;;4.86;61.27;94924.53;5009373;28;20226;-78
2021/04/03 07:45:40;;;;;;;8.48;6.13;;;5.50;74.50;;;4.98;60.41;94925.91;4998247;28;20276;-78
2021/04/03 07:48:24;;;;;;;8.27;6.22;;;5.50;74.70;;;5.05;60.98;94936.47;4993572;28;20225;-78
2021/04/03 07:50:51;;;;;;;9.68;6.43;;;5.60;74.70;;;5.12;61.07;94937.50;5010834;28;20208;-78
2021/04/03 07:53:39;;;;;;;9.20;6.28;;;5.70;74.80;;;5.15;61.39;94944.16;5014485;28;20204;-77
2021/04/03 07:56:09;;;;;;;10.52;6.63;;;5.70;75.10;;;5.16;61.53;94945.78;5007941;28;20289;-79
2021/04/03 07:58:46;;;;;;;8.98;6.10;;;5.70;75.00;;;5.19;62.07;94935.88;4999574;28;20233;-79
2021/04/03 08:01:25;;;;;;;8.95;6.47;;;5.80;75.40;;;5.24;62.30;94946.63;5021224;28;20235;-79
2021/04/03 08:04:00;;;;;;;10.73;6.85;;;5.80;75.50;;;5.29;62.10;94948.75;4996949;28;20198;-79
2021/04/03 08:06:33;;;;;;;9.80;7.20;;;5.80;75.40;;;5.34;62.16;94945.69;5013291;28;20456;-78
2021/04/03 08:09:10;;;;;;;11.05;7.35;;;5.90;75.70;;;5.38;61.61;94944.38;4976524;28;20709;-79
2021/04/03 08:11:37;;;;;;;10.48;6.75;;;5.90;75.50;;;5.42;62.21;94956.09;5001307;28;20221;-79
2021/04/03 08:14:05;;;;;;;10.38;6.75;;;6.00;75.60;;;5.44;62.16;94948.94;4994193;28;20567;-80
2021/04/03 08:16:32;;;;;;;9.75;6.57;;;6.00;75.60;;;5.48;62.38;94947.69;4994348;28;20272;-79
2021/04/03 08:19:00;;;;;;;10.93;7.15;;;6.00;75.70;;;5.49;62.72;94944.09;4991065;28;20656;-79
2021/04/03 08:21:40;;;;;;;10.80;7.18;;;6.10;75.90;;;5.54;62.66;94954.00;4974766;28;20206;-79
2021/04/03 08:24:08;;;;;;;9.52;7.30;;;6.10;75.90;;;5.57;62.74;94949.31;5006568;28;20194;-79
2021/04/03 08:26:37;;;;;;;9.95;6.90;;;6.10;76.00;;;5.67;62.86;94956.97;5013153;28;20603;-79
2021/04/03 08:29:04;;;;;;;10.32;7.55;;;6.20;76.20;;;5.73;63.00;94948.50;5022882;28;20204;-80
2021/04/03 08:31:34;;;;;;;12.02;7.13;;;6.20;76.40;;;5.85;62.72;94949.03;5013030;28;20228;-79
2021/04/03 08:34:04;;;;;;;9.85;7.57;;;6.30;76.60;;;5.98;62.41;94963.34;5010281;28;20232;-79
2021/04/03 08:36:36;;;;;;;10.23;7.43;;;6.30;76.60;;;6.04;62.90;94967.94;4996903;28;20223;-79
2021/04/03 08:39:10;;;;;;;9.48;7.43;;;6.40;76.60;;;6.04;62.47;94968.78;5008375;28;20216;-79
2021/04/03 08:41:40;;;;;;;9.38;7.28;;;6.50;76.40;;;6.06;62.21;94973.81;5009766;28;20218;-79
2021/04/03 08:44:33;;;;;;;9.32;7.18;;;6.50;76.20;;;6.06;61.67;94968.59;5007829;28;20243;-79
2021/04/03 08:47:04;;;;;;;10.00;6.57;;;6.60;75.90;;;6.05;62.33;94975.59;4999017;28;20599;-79
2021/04/03 08:49:37;;;;;;;8.95;6.90;;;6.60;76.00;;;6.16;62.63;94968.44;5005061;28;20603;-79
2021/04/03 08:52:07;;;;;;;8.80;7.05;;;6.60;76.10;;;6.22;62.90;94979.00;5014777;28;20223;-80
2021/04/03 08:54:44;;;;;;;8.20;6.65;;;6.70;76.30;;;6.28;62.16;94974.94;4995421;28;20221;-79
2021/04/03 08:57:29;;;;;;;8.73;6.47;;;6.70;76.10;;;6.32;61.74;94972.81;4993698;28;20243;-79
2021/04/03 09:00:00;;;;;;;8.68;6.60;;;6.80;76.00;;;6.39;62.19;94977.22;5010271;28;20204;-79
2021/04/03 09:02:30;;;;;;;8.65;6.97;;;6.80;76.20;;;6.53;63.01;94973.13;5010800;28;20310;-79
2021/04/03 09:05:04;;;;;;;9.63;7.45;;;6.90;76.60;;;6.81;62.94;94987.56;4995011;28;20600;-79
2021/04/03 09:13:21;;;;;;;10.75;7.65;;;7.10;76.60;;;6.33;64.90;94985.69;5090398;27;20528;-83
2021/04/03 09:15:48;;;;;;;9.13;7.65;;;6.90;78.50;;;6.59;64.67;94984.66;5069219;28;20195;-83
2021/04/03 09:18:16;;;;;;;9.32;7.10;;;6.90;78.90;;;6.95;64.48;94988.69;5049663;28;20313;-83
2021/04/03 09:20:50;;;;;;;11.82;7.32;;;7.10;79.00;;;7.24;62.88;94985.50;5049522;28;20211;-83
2021/04/03 09:23:23;;;;;;;11.00;7.28;;;7.30;78.50;;;7.58;62.67;94989.59;5045292;28;20191;-85
2021/04/03 09:26:01;;;;;;;12.15;8.25;;;7.50;78.60;;;7.87;62.89;94982.09;5029215;28;20176;-85
2021/04/03 09:28:42;;;;;;;9.00;7.75;;;7.80;78.00;;;8.08;61.37;94995.34;5064481;28;20194;-85
2021/04/03 09:31:11;;;;;;;9.48;7.50;;;8.00;77.80;;;8.26;61.52;94992.41;5049911;28;20249;-86
2021/04/03 09:33:49;;;;;;;9.35;7.30;;;8.20;77.90;;;8.40;60.80;94987.41;5065383;28;20715;-82
2021/04/03 09:36:19;;;;;;;9.40;8.07;;;8.40;77.20;;;8.47;59.94;94989.19;5054943;28;20247;-85
2021/04/03 09:38:46;;;;;;;8.55;6.65;;;8.50;76.50;;;8.48;59.61;94996.03;5030959;28;20250;-87
2021/04/03 09:41:30;;;;;;;8.57;7.30;;;8.60;76.30;;;8.48;59.35;94993.44;5048926;28;20270;-83
2021/04/03 09:43:57;;;;;;;11.05;7.05;;;8.80;75.90;;;8.41;59.01;94989.84;5019994;28;20684;-83
2021/04/03 09:46:26;;;;;;;11.57;8.00;;;8.80;75.00;;;8.29;59.03;94999.09;5065075;28;20265;-84
2021/04/03 09:48:53;;;;;;;8.63;6.70;;;8.80;75.00;;;8.16;59.13;94999.69;5048571;28;20204;-83
2021/04/03 09:51:21;;;;;;;8.10;7.15;;;8.80;75.00;;;8.09;58.77;95004.81;5031835;28;20247;-83
2021/04/03 09:53:48;;;;;;;9.35;7.78;;;8.70;75.00;;;8.00;59.51;95008.44;5054331;28;20188;-83
2021/04/03 09:56:16;;;;;;;10.23;6.80;;;8.70;75.00;;;8.05;59.67;95019.19;5035111;28;20212;-84
2021/04/03 09:58:43;;;;;;;9.65;7.45;;;8.60;74.90;;;8.06;59.73;95012.16;5058251;28;20778;-82
2021/04/03 10:01:10;;;;;;;11.57;8.30;;;8.60;74.90;;;8.14;59.93;95027.78;5048340;28;20208;-85
2021/04/03 10:03:37;;;;;;;11.45;8.43;;;8.60;75.20;;;8.18;59.54;95034.28;5057106;28;20253;-83
2021/04/03 10:06:06;;;;;;;9.98;7.88;;;8.60;74.90;;;8.20;58.90;95024.47;5080443;28;20229;-83
2021/04/03 10:08:32;;;;;;;9.93;7.70;;;8.60;74.90;;;8.22;59.23;95034.75;5072041;28;20226;-83
2021/04/03 10:10:59;;;;;;;10.15;7.70;;;8.60;74.90;;;8.22;59.12;95029.53;5052426;28;20665;-83
2021/04/03 10:13:26;;;;;;;10.10;7.50;;;8.60;74.90;;;8.28;58.71;95031.44;5051524;28;20695;-83
2021/04/03 10:15:53;;;;;;;10.82;8.13;;;8.70;75.00;;;8.25;57.98;95031.78;5064366;28;20195;-85
2021/04/03 10:18:20;;;;;;;11.00;8.60;;;8.70;74.50;;;8.21;57.87;95041.75;5032021;28;20207;-84
2021/04/03 10:20:47;;;;;;;11.68;7.63;;;8.70;74.30;;;8.21;57.73;95044.38;5048431;28;20462;-84
2021/04/03 10:23:14;;;;;;;11.02;7.97;;;8.70;74.30;;;8.20;58.62;95037.53;5082987;28;20223;-85
2021/04/03 10:25:41;;;;;;;11.18;7.85;;;8.70;75.00;;;8.20;58.00;95037.53;5074563;28;20220;-83
2021/04/03 10:28:09;;;;;;;9.43;7.75;;;8.70;74.70;;;8.19;58.54;95038.53;5075057;28;20592;-85
2021/04/03 10:30:36;;;;;;;10.68;8.00;;;8.70;74.50;;;8.12;58.11;95035.00;5058211;28;20219;-85
2021/04/03 10:33:03;;;;;;;9.60;7.47;;;8.60;74.30;;;8.04;58.41;95041.06;5075181;28;20238;-85
2021/04/03 10:35:31;;;;;;;10.95;7.90;;;8.60;74.40;;;8.01;58.79;95039.59;5074843;28;20207;-85
2021/04/03 10:37:58;;;;;;;10.02;7.68;;;8.60;74.40;;;7.96;57.37;95047.16;5058379;28;20215;-86
2021/04/03 10:40:25;;;;;;;8.98;7.22;;;8.50;73.80;;;7.95;58.24;95036.88;5058152;28;20615;-85
2021/04/03 10:42:52;;;;;;;10.10;7.82;;;8.50;74.30;;;7.99;58.76;95046.78;5058231;28;20245;-86
2021/04/03 10:45:19;;;;;;;9.48;7.38;;;8.50;74.80;;;8.13;59.13;95039.19;5057898;28;20206;-85
2021/04/03 10:47:46;;;;;;;8.85;7.43;;;8.50;74.80;;;8.27;58.98;95037.66;5058244;28;20219;-85
2021/04/03 10:50:13;;;;;;;10.75;7.50;;;8.60;74.90;;;8.39;58.95;95033.63;5057959;28;20202;-85